sensor_id;sensor_type;location;lat;lon;timestamp;P1;durP1;ratioP1;P2;durP2;ratioP2
55090;SDS011;40985;53.180;5.800;2023-08-06T00:01:49;6.18;;;5.63;;
55090;SDS011;40985;53.180;5.800;2023-08-06T00:04:15;6.10;;;5.65;;
55090;SDS011;40985;53.180;5.800;2023-08-06T00:06:41;7.38;;;6.50;;
55090;SDS011;40985;53.180;5.800;2023-08-06T00:09:07;8.88;;;7.80;;
55090;SDS011;40985;53.180;5.800;2023-08-06T00:11:33;9.13;;;8.27;;
55090;SDS011;40985;53.180;5.800;2023-08-06T00:13:59;10.43;;;9.40;;
55090;SDS011;40985;53.180;5.800;2023-08-06T00:16:24;13.43;;;9.95;;
55090;SDS011;40985;53.180;5.800;2023-08-06T00:18:50;10.50;;;9.50;;
55090;SDS011;40985;53.180;5.800;2023-08-06T00:21:16;12.73;;;10.00;;
55090;SDS011;40985;53.180;5.800;2023-08-06T00:23:41;12.73;;;10.88;;
55090;SDS011;40985;53.180;5.800;2023-08-06T00:26:07;13.45;;;10.25;;
55090;SDS011;40985;53.180;5.800;2023-08-06T00:28:32;11.63;;;10.43;;
55090;SDS011;40985;53.180;5.800;2023-08-06T00:30:58;14.55;;;11.57;;
55090;SDS011;40985;53.180;5.800;2023-08-06T00:33:24;13.20;;;10.65;;
55090;SDS011;40985;53.180;5.800;2023-08-06T00:35:50;12.55;;;11.30;;
55090;SDS011;40985;53.180;5.800;2023-08-06T00:38:16;13.68;;;12.27;;
55090;SDS011;40985;53.180;5.800;2023-08-06T00:40:42;16.02;;;11.77;;
55090;SDS011;40985;53.180;5.800;2023-08-06T00:43:07;14.32;;;11.43;;
55090;SDS011;40985;53.180;5.800;2023-08-06T00:45:34;13.38;;;11.88;;
55090;SDS011;40985;53.180;5.800;2023-08-06T00:48:01;14.50;;;12.40;;
55090;SDS011;40985;53.180;5.800;2023-08-06T00:50:28;14.85;;;13.00;;
55090;SDS011;40985;53.180;5.800;2023-08-06T00:52:54;14.52;;;13.13;;
55090;SDS011;40985;53.180;5.800;2023-08-06T00:55:20;16.27;;;12.55;;
55090;SDS011;40985;53.180;5.800;2023-08-06T00:57:46;14.07;;;12.60;;
55090;SDS011;40985;53.180;5.800;2023-08-06T01:00:12;15.88;;;13.05;;
55090;SDS011;40985;53.180;5.800;2023-08-06T01:02:38;15.40;;;12.93;;
55090;SDS011;40985;53.180;5.800;2023-08-06T01:05:04;15.50;;;12.57;;
55090;SDS011;40985;53.180;5.800;2023-08-06T01:07:37;16.70;;;13.00;;
55090;SDS011;40985;53.180;5.800;2023-08-06T01:10:29;16.03;;;13.43;;
55090;SDS011;40985;53.180;5.800;2023-08-06T01:16:03;15.10;;;12.10;;
55090;SDS011;40985;53.180;5.800;2023-08-06T01:18:30;17.52;;;13.52;;
55090;SDS011;40985;53.180;5.800;2023-08-06T01:20:56;13.93;;;12.38;;
55090;SDS011;40985;53.180;5.800;2023-08-06T01:23:22;17.13;;;12.68;;
55090;SDS011;40985;53.180;5.800;2023-08-06T01:25:53;15.23;;;13.43;;
55090;SDS011;40985;53.180;5.800;2023-08-06T01:28:30;14.23;;;12.73;;
55090;SDS011;40985;53.180;5.800;2023-08-06T01:31:33;14.00;;;12.60;;
55090;SDS011;40985;53.180;5.800;2023-08-06T01:34:02;14.30;;;12.98;;
55090;SDS011;40985;53.180;5.800;2023-08-06T01:36:30;16.75;;;13.27;;
55090;SDS011;40985;53.180;5.800;2023-08-06T01:38:56;17.48;;;14.15;;
55090;SDS011;40985;53.180;5.800;2023-08-06T01:41:22;14.00;;;12.60;;
55090;SDS011;40985;53.180;5.800;2023-08-06T01:43:48;13.90;;;12.50;;
55090;SDS011;40985;53.180;5.800;2023-08-06T01:46:13;15.80;;;13.52;;
55090;SDS011;40985;53.180;5.800;2023-08-06T01:48:39;19.73;;;14.50;;
55090;SDS011;40985;53.180;5.800;2023-08-06T01:51:05;15.80;;;14.07;;
55090;SDS011;40985;53.180;5.800;2023-08-06T01:53:31;15.07;;;13.52;;
55090;SDS011;40985;53.180;5.800;2023-08-06T01:55:57;17.45;;;13.85;;
55090;SDS011;40985;53.180;5.800;2023-08-06T01:58:23;18.90;;;13.98;;
55090;SDS011;40985;53.180;5.800;2023-08-06T02:00:49;18.48;;;13.60;;
55090;SDS011;40985;53.180;5.800;2023-08-06T02:03:15;17.10;;;14.25;;
55090;SDS011;40985;53.180;5.800;2023-08-06T02:05:40;16.88;;;14.52;;
55090;SDS011;40985;53.180;5.800;2023-08-06T02:08:06;16.80;;;13.88;;
55090;SDS011;40985;53.180;5.800;2023-08-06T02:10:32;16.45;;;13.70;;
55090;SDS011;40985;53.180;5.800;2023-08-06T02:12:58;15.82;;;14.00;;
55090;SDS011;40985;53.180;5.800;2023-08-06T02:15:24;18.77;;;13.55;;
55090;SDS011;40985;53.180;5.800;2023-08-06T02:17:49;19.75;;;14.80;;
55090;SDS011;40985;53.180;5.800;2023-08-06T02:20:15;17.08;;;14.73;;
55090;SDS011;40985;53.180;5.800;2023-08-06T02:22:41;15.55;;;13.65;;
55090;SDS011;40985;53.180;5.800;2023-08-06T02:25:06;15.98;;;14.38;;
55090;SDS011;40985;53.180;5.800;2023-08-06T02:27:32;16.90;;;13.57;;
55090;SDS011;40985;53.180;5.800;2023-08-06T02:29:58;16.73;;;13.15;;
55090;SDS011;40985;53.180;5.800;2023-08-06T02:32:24;15.02;;;13.43;;
55090;SDS011;40985;53.180;5.800;2023-08-06T02:34:49;19.25;;;13.57;;
55090;SDS011;40985;53.180;5.800;2023-08-06T02:37:15;14.80;;;12.65;;
55090;SDS011;40985;53.180;5.800;2023-08-06T02:39:41;14.18;;;12.43;;
55090;SDS011;40985;53.180;5.800;2023-08-06T02:42:07;17.05;;;13.65;;
55090;SDS011;40985;53.180;5.800;2023-08-06T02:44:33;13.77;;;12.30;;
55090;SDS011;40985;53.180;5.800;2023-08-06T02:46:59;16.67;;;14.15;;
55090;SDS011;40985;53.180;5.800;2023-08-06T02:49:25;16.73;;;13.95;;
55090;SDS011;40985;53.180;5.800;2023-08-06T02:51:51;18.73;;;14.43;;
55090;SDS011;40985;53.180;5.800;2023-08-06T02:54:17;17.20;;;13.75;;
55090;SDS011;40985;53.180;5.800;2023-08-06T02:56:43;16.00;;;13.45;;
55090;SDS011;40985;53.180;5.800;2023-08-06T02:59:10;17.25;;;14.95;;
55090;SDS011;40985;53.180;5.800;2023-08-06T03:01:36;14.40;;;12.88;;
55090;SDS011;40985;53.180;5.800;2023-08-06T03:04:02;15.95;;;13.68;;
55090;SDS011;40985;53.180;5.800;2023-08-06T03:06:28;19.30;;;14.35;;
55090;SDS011;40985;53.180;5.800;2023-08-06T03:08:54;15.73;;;13.27;;
55090;SDS011;40985;53.180;5.800;2023-08-06T03:11:19;16.65;;;14.90;;
55090;SDS011;40985;53.180;5.800;2023-08-06T03:13:46;21.23;;;14.02;;
55090;SDS011;40985;53.180;5.800;2023-08-06T03:16:15;17.77;;;14.27;;
55090;SDS011;40985;53.180;5.800;2023-08-06T03:18:40;16.52;;;13.88;;
55090;SDS011;40985;53.180;5.800;2023-08-06T03:21:06;15.23;;;12.77;;
55090;SDS011;40985;53.180;5.800;2023-08-06T03:23:32;18.42;;;13.98;;
55090;SDS011;40985;53.180;5.800;2023-08-06T03:26:01;16.35;;;12.95;;
55090;SDS011;40985;53.180;5.800;2023-08-06T03:28:27;14.95;;;12.48;;
55090;SDS011;40985;53.180;5.800;2023-08-06T03:31:00;17.73;;;12.63;;
55090;SDS011;40985;53.180;5.800;2023-08-06T03:33:27;16.38;;;12.88;;
55090;SDS011;40985;53.180;5.800;2023-08-06T03:35:53;14.43;;;12.77;;
55090;SDS011;40985;53.180;5.800;2023-08-06T03:38:18;13.40;;;12.00;;
55090;SDS011;40985;53.180;5.800;2023-08-06T03:40:44;16.67;;;12.02;;
55090;SDS011;40985;53.180;5.800;2023-08-06T03:43:11;15.40;;;11.80;;
55090;SDS011;40985;53.180;5.800;2023-08-06T03:45:36;16.67;;;12.75;;
55090;SDS011;40985;53.180;5.800;2023-08-06T03:48:02;14.15;;;12.45;;
55090;SDS011;40985;53.180;5.800;2023-08-06T03:50:28;13.93;;;11.95;;
55090;SDS011;40985;53.180;5.800;2023-08-06T03:52:54;12.35;;;10.65;;
55090;SDS011;40985;53.180;5.800;2023-08-06T03:55:19;12.40;;;11.10;;
55090;SDS011;40985;53.180;5.800;2023-08-06T03:57:45;20.35;;;13.30;;
55090;SDS011;40985;53.180;5.800;2023-08-06T04:00:11;14.27;;;12.70;;
55090;SDS011;40985;53.180;5.800;2023-08-06T04:02:37;12.70;;;11.27;;
55090;SDS011;40985;53.180;5.800;2023-08-06T04:05:03;16.98;;;12.38;;
55090;SDS011;40985;53.180;5.800;2023-08-06T04:07:29;17.80;;;12.30;;
55090;SDS011;40985;53.180;5.800;2023-08-06T04:09:57;15.00;;;12.70;;
55090;SDS011;40985;53.180;5.800;2023-08-06T04:12:24;18.45;;;12.75;;
55090;SDS011;40985;53.180;5.800;2023-08-06T04:14:50;15.30;;;13.70;;
55090;SDS011;40985;53.180;5.800;2023-08-06T04:17:18;14.60;;;12.93;;
55090;SDS011;40985;53.180;5.800;2023-08-06T04:19:48;17.83;;;13.30;;
55090;SDS011;40985;53.180;5.800;2023-08-06T04:22:15;17.65;;;12.77;;
55090;SDS011;40985;53.180;5.800;2023-08-06T04:24:41;16.08;;;12.15;;
55090;SDS011;40985;53.180;5.800;2023-08-06T04:27:08;14.43;;;12.95;;
55090;SDS011;40985;53.180;5.800;2023-08-06T04:29:34;14.85;;;12.82;;
55090;SDS011;40985;53.180;5.800;2023-08-06T04:32:00;18.90;;;13.85;;
55090;SDS011;40985;53.180;5.800;2023-08-06T04:34:25;14.35;;;12.85;;
55090;SDS011;40985;53.180;5.800;2023-08-06T04:36:51;13.82;;;12.35;;
55090;SDS011;40985;53.180;5.800;2023-08-06T04:39:17;18.20;;;13.93;;
55090;SDS011;40985;53.180;5.800;2023-08-06T04:41:42;18.83;;;14.63;;
55090;SDS011;40985;53.180;5.800;2023-08-06T04:44:08;15.60;;;13.90;;
55090;SDS011;40985;53.180;5.800;2023-08-06T04:46:34;15.20;;;13.65;;
55090;SDS011;40985;53.180;5.800;2023-08-06T04:48:59;16.70;;;14.07;;
55090;SDS011;40985;53.180;5.800;2023-08-06T04:51:25;19.77;;;14.13;;
55090;SDS011;40985;53.180;5.800;2023-08-06T04:53:51;22.13;;;15.68;;
55090;SDS011;40985;53.180;5.800;2023-08-06T04:56:16;18.08;;;14.95;;
55090;SDS011;40985;53.180;5.800;2023-08-06T04:58:42;19.05;;;15.48;;
55090;SDS011;40985;53.180;5.800;2023-08-06T05:01:07;19.52;;;15.77;;
55090;SDS011;40985;53.180;5.800;2023-08-06T05:03:33;17.55;;;15.30;;
55090;SDS011;40985;53.180;5.800;2023-08-06T05:05:59;17.73;;;15.77;;
55090;SDS011;40985;53.180;5.800;2023-08-06T05:08:24;22.48;;;15.90;;
55090;SDS011;40985;53.180;5.800;2023-08-06T05:10:50;17.33;;;15.45;;
55090;SDS011;40985;53.180;5.800;2023-08-06T05:13:16;17.08;;;15.00;;
55090;SDS011;40985;53.180;5.800;2023-08-06T05:15:41;16.73;;;14.98;;
55090;SDS011;40985;53.180;5.800;2023-08-06T05:18:08;18.88;;;15.52;;
55090;SDS011;40985;53.180;5.800;2023-08-06T05:20:37;17.45;;;15.15;;
55090;SDS011;40985;53.180;5.800;2023-08-06T05:23:04;18.50;;;15.77;;
55090;SDS011;40985;53.180;5.800;2023-08-06T05:25:30;17.70;;;15.57;;
55090;SDS011;40985;53.180;5.800;2023-08-06T05:27:56;17.65;;;15.85;;
55090;SDS011;40985;53.180;5.800;2023-08-06T05:30:21;18.45;;;15.10;;
55090;SDS011;40985;53.180;5.800;2023-08-06T05:32:47;18.02;;;14.65;;
55090;SDS011;40985;53.180;5.800;2023-08-06T05:35:13;16.52;;;14.93;;
55090;SDS011;40985;53.180;5.800;2023-08-06T05:37:38;16.65;;;14.88;;
55090;SDS011;40985;53.180;5.800;2023-08-06T05:40:04;18.67;;;15.18;;
55090;SDS011;40985;53.180;5.800;2023-08-06T05:42:30;17.15;;;15.38;;
55090;SDS011;40985;53.180;5.800;2023-08-06T05:44:56;18.77;;;15.27;;
55090;SDS011;40985;53.180;5.800;2023-08-06T05:47:21;18.52;;;14.27;;
55090;SDS011;40985;53.180;5.800;2023-08-06T05:49:47;16.48;;;14.43;;
55090;SDS011;40985;53.180;5.800;2023-08-06T05:52:13;17.45;;;12.50;;
55090;SDS011;40985;53.180;5.800;2023-08-06T05:54:38;15.07;;;12.50;;
55090;SDS011;40985;53.180;5.800;2023-08-06T05:57:05;16.35;;;13.95;;
55090;SDS011;40985;53.180;5.800;2023-08-06T05:59:31;15.90;;;13.90;;
55090;SDS011;40985;53.180;5.800;2023-08-06T06:01:57;15.75;;;14.15;;
55090;SDS011;40985;53.180;5.800;2023-08-06T06:04:23;14.70;;;13.15;;
55090;SDS011;40985;53.180;5.800;2023-08-06T06:06:49;13.98;;;12.15;;
55090;SDS011;40985;53.180;5.800;2023-08-06T06:09:15;14.20;;;12.90;;
55090;SDS011;40985;53.180;5.800;2023-08-06T06:11:41;13.30;;;12.10;;
55090;SDS011;40985;53.180;5.800;2023-08-06T06:14:06;15.60;;;12.60;;
55090;SDS011;40985;53.180;5.800;2023-08-06T06:16:32;14.07;;;12.65;;
55090;SDS011;40985;53.180;5.800;2023-08-06T06:18:58;14.05;;;12.52;;
55090;SDS011;40985;53.180;5.800;2023-08-06T06:21:24;13.43;;;12.02;;
55090;SDS011;40985;53.180;5.800;2023-08-06T06:23:50;14.43;;;12.93;;
55090;SDS011;40985;53.180;5.800;2023-08-06T06:26:17;16.13;;;12.38;;
55090;SDS011;40985;53.180;5.800;2023-08-06T06:28:43;12.90;;;11.55;;
55090;SDS011;40985;53.180;5.800;2023-08-06T06:31:08;11.50;;;10.43;;
55090;SDS011;40985;53.180;5.800;2023-08-06T06:33:34;12.57;;;11.27;;
55090;SDS011;40985;53.180;5.800;2023-08-06T06:36:00;11.30;;;10.27;;
55090;SDS011;40985;53.180;5.800;2023-08-06T06:38:28;11.73;;;10.55;;
55090;SDS011;40985;53.180;5.800;2023-08-06T06:40:57;11.10;;;10.07;;
55090;SDS011;40985;53.180;5.800;2023-08-06T06:43:23;11.80;;;9.90;;
55090;SDS011;40985;53.180;5.800;2023-08-06T06:45:52;11.80;;;10.70;;
55090;SDS011;40985;53.180;5.800;2023-08-06T06:48:19;11.13;;;10.18;;
55090;SDS011;40985;53.180;5.800;2023-08-06T06:50:47;12.85;;;10.40;;
55090;SDS011;40985;53.180;5.800;2023-08-06T06:53:13;10.30;;;9.35;;
55090;SDS011;40985;53.180;5.800;2023-08-06T06:55:39;12.55;;;9.65;;
55090;SDS011;40985;53.180;5.800;2023-08-06T06:58:04;10.57;;;9.77;;
55090;SDS011;40985;53.180;5.800;2023-08-06T07:00:30;10.07;;;9.27;;
55090;SDS011;40985;53.180;5.800;2023-08-06T07:02:56;8.70;;;7.85;;
55090;SDS011;40985;53.180;5.800;2023-08-06T07:05:21;11.30;;;8.63;;
55090;SDS011;40985;53.180;5.800;2023-08-06T07:07:47;9.32;;;8.48;;
55090;SDS011;40985;53.180;5.800;2023-08-06T07:10:13;9.07;;;8.35;;
55090;SDS011;40985;53.180;5.800;2023-08-06T07:12:38;10.55;;;9.45;;
55090;SDS011;40985;53.180;5.800;2023-08-06T07:15:06;9.85;;;8.95;;
55090;SDS011;40985;53.180;5.800;2023-08-06T07:17:32;10.73;;;9.68;;
55090;SDS011;40985;53.180;5.800;2023-08-06T07:19:57;10.45;;;9.07;;
55090;SDS011;40985;53.180;5.800;2023-08-06T07:22:23;10.18;;;9.20;;
55090;SDS011;40985;53.180;5.800;2023-08-06T07:24:49;10.10;;;9.18;;
55090;SDS011;40985;53.180;5.800;2023-08-06T07:27:14;9.30;;;8.60;;
55090;SDS011;40985;53.180;5.800;2023-08-06T07:29:40;11.30;;;8.48;;
55090;SDS011;40985;53.180;5.800;2023-08-06T07:32:06;9.32;;;8.48;;
55090;SDS011;40985;53.180;5.800;2023-08-06T07:34:32;8.98;;;8.15;;
55090;SDS011;40985;53.180;5.800;2023-08-06T07:36:58;8.82;;;8.18;;
55090;SDS011;40985;53.180;5.800;2023-08-06T07:39:24;7.72;;;7.13;;
55090;SDS011;40985;53.180;5.800;2023-08-06T07:41:50;8.60;;;7.68;;
55090;SDS011;40985;53.180;5.800;2023-08-06T07:44:16;8.38;;;6.78;;
55090;SDS011;40985;53.180;5.800;2023-08-06T07:46:42;7.60;;;6.85;;
55090;SDS011;40985;53.180;5.800;2023-08-06T07:49:08;7.47;;;6.30;;
55090;SDS011;40985;53.180;5.800;2023-08-06T07:51:36;6.28;;;5.78;;
55090;SDS011;40985;53.180;5.800;2023-08-06T07:54:01;5.97;;;5.43;;
55090;SDS011;40985;53.180;5.800;2023-08-06T07:56:28;6.03;;;5.60;;
55090;SDS011;40985;53.180;5.800;2023-08-06T07:58:54;6.03;;;5.53;;
55090;SDS011;40985;53.180;5.800;2023-08-06T08:01:19;4.63;;;4.30;;
55090;SDS011;40985;53.180;5.800;2023-08-06T08:03:45;3.90;;;3.63;;
55090;SDS011;40985;53.180;5.800;2023-08-06T08:06:11;2.78;;;2.67;;
55090;SDS011;40985;53.180;5.800;2023-08-06T08:08:36;2.70;;;2.42;;
55090;SDS011;40985;53.180;5.800;2023-08-06T08:11:03;2.38;;;2.17;;
55090;SDS011;40985;53.180;5.800;2023-08-06T08:13:30;2.20;;;2.10;;
55090;SDS011;40985;53.180;5.800;2023-08-06T08:15:57;3.63;;;2.60;;
55090;SDS011;40985;53.180;5.800;2023-08-06T08:18:23;6.07;;;2.22;;
55090;SDS011;40985;53.180;5.800;2023-08-06T08:20:49;2.70;;;2.50;;
55090;SDS011;40985;53.180;5.800;2023-08-06T08:23:15;2.03;;;1.85;;
55090;SDS011;40985;53.180;5.800;2023-08-06T08:25:41;2.53;;;2.00;;
55090;SDS011;40985;53.180;5.800;2023-08-06T08:28:06;2.88;;;2.67;;
55090;SDS011;40985;53.180;5.800;2023-08-06T08:30:32;2.10;;;1.90;;
55090;SDS011;40985;53.180;5.800;2023-08-06T08:32:58;1.88;;;1.70;;
55090;SDS011;40985;53.180;5.800;2023-08-06T08:35:24;3.70;;;2.00;;
55090;SDS011;40985;53.180;5.800;2023-08-06T08:37:50;4.78;;;2.25;;
55090;SDS011;40985;53.180;5.800;2023-08-06T08:40:16;1.90;;;1.50;;
55090;SDS011;40985;53.180;5.800;2023-08-06T08:42:43;2.10;;;2.00;;
55090;SDS011;40985;53.180;5.800;2023-08-06T08:45:11;1.40;;;1.00;;
55090;SDS011;40985;53.180;5.800;2023-08-06T08:47:41;1.20;;;1.08;;
55090;SDS011;40985;53.180;5.800;2023-08-06T08:50:11;3.35;;;1.23;;
55090;SDS011;40985;53.180;5.800;2023-08-06T08:52:39;2.55;;;1.60;;
55090;SDS011;40985;53.180;5.800;2023-08-06T08:55:08;1.90;;;1.00;;
55090;SDS011;40985;53.180;5.800;2023-08-06T08:57:34;1.98;;;1.02;;
55090;SDS011;40985;53.180;5.800;2023-08-06T08:59:59;1.00;;;0.70;;
55090;SDS011;40985;53.180;5.800;2023-08-06T09:02:26;0.90;;;0.70;;
55090;SDS011;40985;53.180;5.800;2023-08-06T09:05:00;1.15;;;0.60;;
55090;SDS011;40985;53.180;5.800;2023-08-06T09:07:32;1.60;;;0.60;;
55090;SDS011;40985;53.180;5.800;2023-08-06T09:10:01;1.55;;;0.40;;
55090;SDS011;40985;53.180;5.800;2023-08-06T09:12:31;3.33;;;0.40;;
55090;SDS011;40985;53.180;5.800;2023-08-06T09:14:57;0.75;;;0.50;;
55090;SDS011;40985;53.180;5.800;2023-08-06T09:17:23;1.85;;;0.40;;
55090;SDS011;40985;53.180;5.800;2023-08-06T09:19:49;1.15;;;0.50;;
55090;SDS011;40985;53.180;5.800;2023-08-06T09:22:15;0.93;;;0.45;;
55090;SDS011;40985;53.180;5.800;2023-08-06T09:24:41;2.53;;;0.50;;
55090;SDS011;40985;53.180;5.800;2023-08-06T09:27:13;0.60;;;0.35;;
55090;SDS011;40985;53.180;5.800;2023-08-06T09:32:05;1.20;;;0.60;;
55090;SDS011;40985;53.180;5.800;2023-08-06T09:34:31;2.08;;;0.50;;
55090;SDS011;40985;53.180;5.800;2023-08-06T09:36:57;3.60;;;0.43;;
55090;SDS011;40985;53.180;5.800;2023-08-06T09:39:29;0.80;;;0.50;;
55090;SDS011;40985;53.180;5.800;2023-08-06T09:41:59;2.03;;;0.40;;
55090;SDS011;40985;53.180;5.800;2023-08-06T09:44:27;1.30;;;0.40;;
55090;SDS011;40985;53.180;5.800;2023-08-06T09:46:54;0.80;;;0.40;;
55090;SDS011;40985;53.180;5.800;2023-08-06T09:49:24;0.88;;;0.50;;
55090;SDS011;40985;53.180;5.800;2023-08-06T09:51:52;1.88;;;0.50;;
55090;SDS011;40985;53.180;5.800;2023-08-06T09:54:22;0.65;;;0.45;;
55090;SDS011;40985;53.180;5.800;2023-08-06T09:56:48;3.03;;;0.40;;
55090;SDS011;40985;53.180;5.800;2023-08-06T09:59:14;1.02;;;0.45;;
55090;SDS011;40985;53.180;5.800;2023-08-06T10:01:43;1.35;;;0.52;;
55090;SDS011;40985;53.180;5.800;2023-08-06T10:04:10;1.15;;;0.50;;
55090;SDS011;40985;53.180;5.800;2023-08-06T10:06:38;1.05;;;0.50;;
55090;SDS011;40985;53.180;5.800;2023-08-06T10:09:04;0.68;;;0.35;;
55090;SDS011;40985;53.180;5.800;2023-08-06T10:11:30;1.10;;;0.70;;
55090;SDS011;40985;53.180;5.800;2023-08-06T10:14:16;1.33;;;0.50;;
55090;SDS011;40985;53.180;5.800;2023-08-06T10:16:46;1.08;;;0.60;;
55090;SDS011;40985;53.180;5.800;2023-08-06T10:19:13;1.13;;;0.40;;
55090;SDS011;40985;53.180;5.800;2023-08-06T10:21:40;1.00;;;0.57;;
55090;SDS011;40985;53.180;5.800;2023-08-06T10:24:09;0.98;;;0.40;;
55090;SDS011;40985;53.180;5.800;2023-08-06T10:26:39;0.95;;;0.35;;
55090;SDS011;40985;53.180;5.800;2023-08-06T10:29:47;2.47;;;0.50;;
55090;SDS011;40985;53.180;5.800;2023-08-06T10:32:00;0.75;;;0.40;;
55090;SDS011;40985;53.180;5.800;2023-08-06T10:34:39;3.60;;;0.52;;
55090;SDS011;40985;53.180;5.800;2023-08-06T10:37:21;4.53;;;0.70;;
55090;SDS011;40985;53.180;5.800;2023-08-06T10:39:51;3.10;;;0.80;;
55090;SDS011;40985;53.180;5.800;2023-08-06T10:42:35;2.30;;;0.70;;
55090;SDS011;40985;53.180;5.800;2023-08-06T10:45:11;2.63;;;0.98;;
55090;SDS011;40985;53.180;5.800;2023-08-06T10:47:40;3.03;;;0.80;;
55090;SDS011;40985;53.180;5.800;2023-08-06T10:50:07;1.10;;;0.60;;
55090;SDS011;40985;53.180;5.800;2023-08-06T10:52:35;1.83;;;0.95;;
55090;SDS011;40985;53.180;5.800;2023-08-06T10:55:01;1.92;;;0.90;;
55090;SDS011;40985;53.180;5.800;2023-08-06T10:57:27;3.58;;;0.93;;
55090;SDS011;40985;53.180;5.800;2023-08-06T10:59:53;1.90;;;0.63;;
55090;SDS011;40985;53.180;5.800;2023-08-06T11:02:18;1.23;;;1.08;;
55090;SDS011;40985;53.180;5.800;2023-08-06T11:04:44;3.40;;;1.05;;
55090;SDS011;40985;53.180;5.800;2023-08-06T11:07:10;1.73;;;0.88;;
55090;SDS011;40985;53.180;5.800;2023-08-06T11:09:36;2.15;;;0.90;;
55090;SDS011;40985;53.180;5.800;2023-08-06T11:12:02;3.10;;;1.65;;
55090;SDS011;40985;53.180;5.800;2023-08-06T11:14:31;2.08;;;1.25;;
55090;SDS011;40985;53.180;5.800;2023-08-06T11:16:57;3.17;;;1.15;;
55090;SDS011;40985;53.180;5.800;2023-08-06T11:19:23;1.63;;;1.10;;
55090;SDS011;40985;53.180;5.800;2023-08-06T11:21:50;3.17;;;1.02;;
55090;SDS011;40985;53.180;5.800;2023-08-06T11:24:16;1.80;;;1.38;;
55090;SDS011;40985;53.180;5.800;2023-08-06T11:26:42;1.88;;;1.40;;
55090;SDS011;40985;53.180;5.800;2023-08-06T11:29:09;3.08;;;1.15;;
55090;SDS011;40985;53.180;5.800;2023-08-06T11:31:35;2.17;;;1.38;;
55090;SDS011;40985;53.180;5.800;2023-08-06T11:34:01;3.22;;;1.50;;
55090;SDS011;40985;53.180;5.800;2023-08-06T11:36:30;3.63;;;1.50;;
55090;SDS011;40985;53.180;5.800;2023-08-06T11:39:01;1.42;;;1.10;;
55090;SDS011;40985;53.180;5.800;2023-08-06T11:41:30;1.35;;;1.08;;
55090;SDS011;40985;53.180;5.800;2023-08-06T11:44:01;2.40;;;1.00;;
55090;SDS011;40985;53.180;5.800;2023-08-06T11:46:27;2.03;;;1.20;;
55090;SDS011;40985;53.180;5.800;2023-08-06T11:48:56;2.53;;;1.63;;
55090;SDS011;40985;53.180;5.800;2023-08-06T11:51:26;2.47;;;1.63;;
55090;SDS011;40985;53.180;5.800;2023-08-06T11:53:58;1.80;;;1.30;;
55090;SDS011;40985;53.180;5.800;2023-08-06T11:56:24;1.63;;;1.33;;
55090;SDS011;40985;53.180;5.800;2023-08-06T11:58:51;4.90;;;1.40;;
55090;SDS011;40985;53.180;5.800;2023-08-06T12:01:17;2.67;;;1.30;;
55090;SDS011;40985;53.180;5.800;2023-08-06T12:03:43;4.45;;;1.30;;
55090;SDS011;40985;53.180;5.800;2023-08-06T12:06:09;2.03;;;1.38;;
55090;SDS011;40985;53.180;5.800;2023-08-06T12:08:34;2.40;;;1.80;;
55090;SDS011;40985;53.180;5.800;2023-08-06T12:11:00;4.07;;;1.38;;
55090;SDS011;40985;53.180;5.800;2023-08-06T12:13:26;3.00;;;0.85;;
55090;SDS011;40985;53.180;5.800;2023-08-06T12:15:53;2.95;;;1.20;;
55090;SDS011;40985;53.180;5.800;2023-08-06T12:18:19;4.43;;;1.42;;
55090;SDS011;40985;53.180;5.800;2023-08-06T12:20:45;1.40;;;1.25;;
55090;SDS011;40985;53.180;5.800;2023-08-06T12:23:10;2.67;;;0.98;;
55090;SDS011;40985;53.180;5.800;2023-08-06T12:25:40;3.30;;;1.02;;
55090;SDS011;40985;53.180;5.800;2023-08-06T12:28:06;3.30;;;1.08;;
55090;SDS011;40985;53.180;5.800;2023-08-06T12:30:33;2.60;;;0.95;;
55090;SDS011;40985;53.180;5.800;2023-08-06T12:32:59;1.80;;;1.30;;
55090;SDS011;40985;53.180;5.800;2023-08-06T12:35:25;2.67;;;1.65;;
55090;SDS011;40985;53.180;5.800;2023-08-06T12:37:51;3.92;;;1.60;;
55090;SDS011;40985;53.180;5.800;2023-08-06T12:40:22;1.17;;;1.02;;
55090;SDS011;40985;53.180;5.800;2023-08-06T12:42:52;2.92;;;1.30;;
55090;SDS011;40985;53.180;5.800;2023-08-06T12:45:18;1.85;;;1.40;;
55090;SDS011;40985;53.180;5.800;2023-08-06T12:47:46;1.27;;;1.17;;
55090;SDS011;40985;53.180;5.800;2023-08-06T12:50:12;3.08;;;1.52;;
55090;SDS011;40985;53.180;5.800;2023-08-06T12:52:37;3.33;;;1.30;;
55090;SDS011;40985;53.180;5.800;2023-08-06T12:55:03;1.88;;;1.35;;
55090;SDS011;40985;53.180;5.800;2023-08-06T12:57:29;1.85;;;1.38;;
55090;SDS011;40985;53.180;5.800;2023-08-06T12:59:55;1.65;;;1.30;;
55090;SDS011;40985;53.180;5.800;2023-08-06T13:02:21;1.70;;;1.60;;
55090;SDS011;40985;53.180;5.800;2023-08-06T13:04:47;2.53;;;1.00;;
55090;SDS011;40985;53.180;5.800;2023-08-06T13:07:12;2.35;;;1.23;;
55090;SDS011;40985;53.180;5.800;2023-08-06T13:09:38;1.45;;;1.10;;
55090;SDS011;40985;53.180;5.800;2023-08-06T13:12:04;2.33;;;1.15;;
55090;SDS011;40985;53.180;5.800;2023-08-06T13:14:31;1.35;;;1.15;;
55090;SDS011;40985;53.180;5.800;2023-08-06T13:16:56;3.17;;;1.05;;
55090;SDS011;40985;53.180;5.800;2023-08-06T13:19:22;2.33;;;1.52;;
55090;SDS011;40985;53.180;5.800;2023-08-06T13:24:15;1.65;;;1.15;;
55090;SDS011;40985;53.180;5.800;2023-08-06T13:26:41;1.30;;;0.90;;
55090;SDS011;40985;53.180;5.800;2023-08-06T13:29:06;1.60;;;0.77;;
55090;SDS011;40985;53.180;5.800;2023-08-06T13:31:32;1.67;;;0.95;;
55090;SDS011;40985;53.180;5.800;2023-08-06T13:33:58;1.20;;;0.77;;
55090;SDS011;40985;53.180;5.800;2023-08-06T13:36:24;2.45;;;0.70;;
55090;SDS011;40985;53.180;5.800;2023-08-06T13:38:53;1.27;;;0.65;;
55090;SDS011;40985;53.180;5.800;2023-08-06T13:41:19;1.48;;;0.50;;
55090;SDS011;40985;53.180;5.800;2023-08-06T13:43:45;1.25;;;0.70;;
55090;SDS011;40985;53.180;5.800;2023-08-06T13:46:11;1.17;;;0.60;;
55090;SDS011;40985;53.180;5.800;2023-08-06T13:48:44;0.85;;;0.52;;
55090;SDS011;40985;53.180;5.800;2023-08-06T13:51:11;1.55;;;0.70;;
55090;SDS011;40985;53.180;5.800;2023-08-06T13:53:38;1.98;;;0.70;;
55090;SDS011;40985;53.180;5.800;2023-08-06T13:56:07;1.65;;;0.88;;
55090;SDS011;40985;53.180;5.800;2023-08-06T13:58:35;2.95;;;0.70;;
55090;SDS011;40985;53.180;5.800;2023-08-06T14:01:01;1.63;;;0.75;;
55090;SDS011;40985;53.180;5.800;2023-08-06T14:03:26;3.45;;;0.88;;
55090;SDS011;40985;53.180;5.800;2023-08-06T14:05:52;3.53;;;0.60;;
55090;SDS011;40985;53.180;5.800;2023-08-06T14:08:20;3.13;;;0.80;;
55090;SDS011;40985;53.180;5.800;2023-08-06T14:10:46;1.45;;;0.70;;
55090;SDS011;40985;53.180;5.800;2023-08-06T14:13:12;4.35;;;0.70;;
55090;SDS011;40985;53.180;5.800;2023-08-06T14:15:37;4.28;;;0.77;;
55090;SDS011;40985;53.180;5.800;2023-08-06T14:18:07;2.33;;;0.70;;
55090;SDS011;40985;53.180;5.800;2023-08-06T14:20:36;2.88;;;0.60;;
55090;SDS011;40985;53.180;5.800;2023-08-06T14:23:02;3.40;;;1.13;;
55090;SDS011;40985;53.180;5.800;2023-08-06T14:25:27;2.97;;;0.70;;
55090;SDS011;40985;53.180;5.800;2023-08-06T14:27:53;2.40;;;0.50;;
55090;SDS011;40985;53.180;5.800;2023-08-06T14:30:19;2.33;;;0.77;;
55090;SDS011;40985;53.180;5.800;2023-08-06T14:32:45;2.20;;;0.60;;
55090;SDS011;40985;53.180;5.800;2023-08-06T14:35:10;2.90;;;0.60;;
55090;SDS011;40985;53.180;5.800;2023-08-06T14:37:36;3.83;;;0.40;;
55090;SDS011;40985;53.180;5.800;2023-08-06T14:40:02;8.02;;;1.98;;
55090;SDS011;40985;53.180;5.800;2023-08-06T14:42:28;2.83;;;0.60;;